Bk Champ — DSPN5 — position and weather

sailwx.info

Track history (hours):
 
Tides and Currents Weather Stations Pressure Air Temp Water Temp Dewpoint Dewpoint Depression Visibility Wind Speed Wind Dir Waves Ship Positions

Bk Champ

Last reported at 2014-Dec-06 21:17 UTC. Time now 2014-Dec-20 23:44 UTC.
Position N 40°49' E 028°53'.
Warning: this ship's position is 14 days out of date.

Length 176 m; draft 5.8 m.

Type: Cargo ship. MMSI: 441299000.

Date/timePositionNaut miles runAvg speedWind from/ knotsBaromVisibWave heightAir tempDewpointWater temp
2014-Dec-06 21:17N 40°49' E 028°53'1 1.1
2014-Dec-06 20:17N 40°49' E 028°54'3 0.9
2014-Dec-06 16:29N 40°50' E 028°58'0 0.2
2014-Dec-06 14:11N 40°50' E 028°59'0 0.1
2014-Dec-06 11:29N 40°51' E 028°58'4 1.5
2014-Dec-06 08:33N 40°46' E 028°58'4 3.5
2014-Dec-06 07:29N 40°43' E 028°55'1 1.0
2014-Dec-06 06:17N 40°44' E 028°56'1 1.0
2014-Dec-06 05:16N 40°45' E 028°56'1 1.0
2014-Dec-06 04:05N 40°46' E 028°57'2 1.1
2014-Dec-06 02:10N 40°49' E 028°57'1 1.2
2014-Dec-06 01:17N 40°50' E 028°57'1 1.0
2014-Dec-06 00:29N 40°50' E 028°57'3 3.6
2014-Dec-05 23:33N 40°51' E 028°52'26711.5
2014-Dec-05 00:25N 37°53' E 024°35'1112.6
2014-Dec-04 23:33N 37°43' E 024°30'1312.7
2014-Dec-04 22:33N 37°31' E 024°23'1313.0
2014-Dec-04 21:32N 37°22' E 024°11'1312.8
2014-Dec-04 20:32N 37°13' E 024°00'1612.9
2014-Dec-04 19:20N 37°02' E 023°46'1313.1
2014-Dec-04 18:21N 36°52' E 023°36'1013.0
2014-Dec-04 17:33N 36°44' E 023°28'1312.8
2014-Dec-04 16:33N 36°32' E 023°22'45113.5
2014-Dec-03 07:06N 36°29' E 014°01'813.2
2014-Dec-03 06:29N 36°32' E 013°51'9413.2
2014-Dec-02 23:23N 37°03' E 012°00'1213.0
2014-Dec-02 22:27N 37°08' E 011°46'  
Track history (hours):
 
Tides and Currents Weather Stations Pressure Air Temp Water Temp Dewpoint Dewpoint Depression Visibility Wind Speed Wind Dir Waves Ship Positions

Bk Champ

Last reported at 2014-Dec-06 21:17 UTC. Time now 2014-Dec-20 23:44 UTC.
Position N 40°49' E 028°53'.
Warning: this ship's position is 14 days out of date.

Length 176 m; draft 5.8 m.

Type: Cargo ship. MMSI: 441299000.

Date/timePositionNaut miles runAvg speedWind from/ knotsBaromVisibWave heightAir tempDewpointWater temp
2014-Dec-06 21:17N 40°49' E 028°53'1 1.1
2014-Dec-06 20:17N 40°49' E 028°54'3 0.9
2014-Dec-06 16:29N 40°50' E 028°58'0 0.2
2014-Dec-06 14:11N 40°50' E 028°59'0 0.1
2014-Dec-06 11:29N 40°51' E 028°58'4 1.5
2014-Dec-06 08:33N 40°46' E 028°58'4 3.5
2014-Dec-06 07:29N 40°43' E 028°55'1 1.0
2014-Dec-06 06:17N 40°44' E 028°56'1 1.0
2014-Dec-06 05:16N 40°45' E 028°56'1 1.0
2014-Dec-06 04:05N 40°46' E 028°57'2 1.1
2014-Dec-06 02:10N 40°49' E 028°57'1 1.2
2014-Dec-06 01:17N 40°50' E 028°57'1 1.0
2014-Dec-06 00:29N 40°50' E 028°57'3 3.6
2014-Dec-05 23:33N 40°51' E 028°52'26711.5
2014-Dec-05 00:25N 37°53' E 024°35'1112.6
2014-Dec-04 23:33N 37°43' E 024°30'1312.7
2014-Dec-04 22:33N 37°31' E 024°23'1313.0
2014-Dec-04 21:32N 37°22' E 024°11'1312.8
2014-Dec-04 20:32N 37°13' E 024°00'1612.9
2014-Dec-04 19:20N 37°02' E 023°46'1313.1
2014-Dec-04 18:21N 36°52' E 023°36'1013.0
2014-Dec-04 17:33N 36°44' E 023°28'1312.8
2014-Dec-04 16:33N 36°32' E 023°22'45113.5
2014-Dec-03 07:06N 36°29' E 014°01'813.2
2014-Dec-03 06:29N 36°32' E 013°51'9413.2
2014-Dec-02 23:23N 37°03' E 012°00'1213.0
2014-Dec-02 22:27N 37°08' E 011°46'  

Dump ship's entire track history